Wilson Lahn — 8PUO — position and weather

sailwx.info

Track history (hours):
 
Tides and Currents Weather Stations Pressure Air Temp Water Temp Dewpoint Dewpoint Depression Visibility Wind Speed Wind Dir Waves Ship Positions

Wilson Lahn

Last reported at 2015-Jan-31 11:33 UTC. Time now 2015-Jan-31 11:39 UTC.
Position N 55°51' E 012°43'.

Length 83 m; draft 4.5 m.

Type: Cargo ship. MMSI: 314259000.

Date/timePositionNaut miles runAvg speedWind from/ knotsBaromVisibWave heightAir tempDewpointWater temp
2015-Jan-31 11:33N 55°51' E 012°43'1110.6
2015-Jan-31 10:33N 55°40' E 012°42'1010.3
2015-Jan-31 09:33N 55°30' E 012°43'10 9.6
2015-Jan-31 08:33N 55°20' E 012°41'1010.1
2015-Jan-31 07:33N 55°14' E 012°55'1110.5
2015-Jan-31 06:32N 55°06' E 013°08'18 9.2
2015-Jan-31 04:33N 54°52' E 013°28'10 9.9
2015-Jan-31 03:33N 54°44' E 013°38'1010.0
2015-Jan-31 02:33N 54°36' E 013°48'1010.2
2015-Jan-31 01:33N 54°28' E 013°58'1010.1
2015-Jan-31 00:33N 54°20' E 014°08'10 9.8
2015-Jan-30 23:31N 54°10' E 014°13'1010.1
2015-Jan-30 22:33N 54°00' E 014°16'8 8.3
2015-Jan-30 21:33N 53°52' E 014°17'10 9.5
2015-Jan-30 20:33N 53°44' E 014°26'1110.6
2015-Jan-30 19:33N 53°35' E 014°36'1 0.0
2015-Jan-29 12:14N 53°34' E 014°36'6 9.2
2015-Jan-29 11:33N 53°40' E 014°32'1111.1
2015-Jan-29 10:33N 53°49' E 014°20'6 6.2
2015-Jan-29 09:33N 53°55' E 014°16'6 6.0
2015-Jan-29 08:33N 54°01' E 014°15'10 9.6
2015-Jan-29 07:33N 54°09' E 014°07'1010.1
2015-Jan-29 06:33N 54°18' E 013°59'1010.2
2015-Jan-29 05:33N 54°27' E 013°51'1010.4
2015-Jan-29 04:33N 54°36' E 013°42'1010.1
2015-Jan-29 03:33N 54°44' E 013°33'1110.8
2015-Jan-29 02:34N 54°45' E 013°14'1110.6
2015-Jan-29 01:33N 54°46' E 012°56'10 9.9
2015-Jan-29 00:33N 54°43' E 012°39'1110.8
2015-Jan-28 23:33N 54°37' E 012°24'10 9.9
2015-Jan-28 22:33N 54°28' E 012°15'10 9.8
2015-Jan-28 21:33N 54°25' E 011°60'1010.3
2015-Jan-28 20:33N 54°26' E 011°42'1010.1
2015-Jan-28 19:33N 54°31' E 011°27'10 9.6
2015-Jan-28 18:33N 54°35' E 011°12'10 9.4
2015-Jan-28 17:31N 54°35' E 010°55'10 9.9
2015-Jan-28 16:33N 54°34' E 010°38'1010.1
2015-Jan-28 15:33N 54°30' E 010°22'6 5.9
2015-Jan-28 14:33N 54°27' E 010°15'6 5.8
2015-Jan-28 13:33N 54°22' E 010°09'1 0.6
2015-Jan-28 12:33N 54°22' E 010°08'3 3.2
2015-Jan-28 11:34N 54°22' E 010°02'7 7.1
2015-Jan-28 10:33N 54°22' E 009°50'8 8.0
2015-Jan-28 09:33N 54°17' E 009°39'8 8.2
2015-Jan-28 08:33N 54°11' E 009°29'8 8.0
2015-Jan-28 07:32N 54°05' E 009°19'9 8.6
2015-Jan-28 06:33N 53°57' E 009°15'5 5.2
2015-Jan-28 05:33N 53°54' E 009°09'1 1.0
2015-Jan-28 04:34N 53°53' E 009°07'5 5.2
2015-Jan-28 03:33N 53°51' E 008°59'1211.5
2015-Jan-28 02:33N 53°55' E 008°41'1312.5
2015-Jan-28 01:33N 53°59' E 008°21'1212.3
2015-Jan-28 00:33N 53°58' E 007°60'1211.1
2015-Jan-27 23:27N 53°55' E 007°39'1010.2
2015-Jan-27 22:28N 53°53' E 007°23'48 8.9
2015-Jan-27 17:06N 53°41' E 006°04'6 9.1
2015-Jan-27 16:26N 53°39' E 005°55'9 9.5
2015-Jan-27 15:32N 53°36' E 005°41'10 9.9
2015-Jan-27 14:33N 53°33' E 005°26'1010.0
2015-Jan-27 13:33N 53°30' E 005°10'1010.5
2015-Jan-27 12:34N 53°26' E 004°54'10 9.6
2015-Jan-27 11:34N 53°20' E 004°41'115 7.6
2015-Jan-26 20:28N 51°35' E 003°24'1111.8
2015-Jan-26 19:33N 51°26' E 003°34'5 5.1
2015-Jan-26 18:32N 51°27' E 003°42'0 0.0
2015-Jan-26 17:29N 51°27' E 003°42'0 0.0
2015-Jan-26 16:17N 51°27' E 003°42'0 0.0
2015-Jan-26 15:23N 51°27' E 003°42'0 0.0
2015-Jan-26 14:26N 51°27' E 003°42'0 0.0
2015-Jan-26 13:23N 51°27' E 003°42'0 0.0
2015-Jan-26 12:26N 51°27' E 003°42'0 0.0
2015-Jan-26 11:32N 51°27' E 003°42'0 0.0
2015-Jan-26 10:29N 51°27' E 003°42'0 0.0
2015-Jan-26 09:29N 51°27' E 003°42'0 0.0
2015-Jan-26 08:32N 51°27' E 003°42'1 1.3
2015-Jan-26 07:33N 51°27' E 003°40'8 8.0
2015-Jan-26 06:33N 51°30' E 003°28'1010.0
2015-Jan-26 05:33N 51°38' E 003°20'8 7.6
2015-Jan-26 04:33N 51°45' E 003°14'3 1.2
2015-Jan-26 02:23N 51°47' E 003°15'19 4.9
2015-Jan-25 22:25N 52°06' E 003°22'3 3.7
2015-Jan-25 21:31N 52°10' E 003°22'3 3.0
2015-Jan-25 20:32N 52°13' E 003°23'2 2.5
2015-Jan-25 19:33N 52°15' E 003°24'11 2.5
2015-Jan-25 15:16N 52°25' E 003°27'15 5.2
2015-Jan-25 12:23N 52°40' E 003°34'17 6.1
2015-Jan-25 09:33N 52°53' E 003°52'5 4.7
2015-Jan-25 08:33N 52°57' E 003°57'  
2015-Jan-23 03:18N 58°46' E 005°23'6 8.6
2015-Jan-23 02:33N 58°51' E 005°30'9 9.3
2015-Jan-23 01:33N 59°00' E 005°33'9 9.0
2015-Jan-23 00:31N 59°10' E 005°35'1010.5
2015-Jan-22 23:33N 59°18' E 005°47'1110.6
2015-Jan-22 22:32N 59°24' E 006°04'17 0.8
2015-Jan-22 00:13N 59°39' E 006°22'9 1.4
2015-Jan-21 17:16N 59°30' E 006°14'7 8.5
2015-Jan-21 16:24N 59°24' E 006°05'8 9.2
2015-Jan-21 15:34N 59°19' E 005°55'9 9.2
2015-Jan-21 14:33N 59°13' E 005°40'9 8.9
2015-Jan-21 13:33N 59°05' E 005°33'6 6.4
2015-Jan-21 12:33N 58°60' E 005°40'  
Track history (hours):
 
Tides and Currents Weather Stations Pressure Air Temp Water Temp Dewpoint Dewpoint Depression Visibility Wind Speed Wind Dir Waves Ship Positions

Wilson Lahn

Last reported at 2015-Jan-31 11:33 UTC. Time now 2015-Jan-31 11:39 UTC.
Position N 55°51' E 012°43'.

Length 83 m; draft 4.5 m.

Type: Cargo ship. MMSI: 314259000.

Date/timePositionNaut miles runAvg speedWind from/ knotsBaromVisibWave heightAir tempDewpointWater temp
2015-Jan-31 11:33N 55°51' E 012°43'1110.6
2015-Jan-31 10:33N 55°40' E 012°42'1010.3
2015-Jan-31 09:33N 55°30' E 012°43'10 9.6
2015-Jan-31 08:33N 55°20' E 012°41'1010.1
2015-Jan-31 07:33N 55°14' E 012°55'1110.5
2015-Jan-31 06:32N 55°06' E 013°08'18 9.2
2015-Jan-31 04:33N 54°52' E 013°28'10 9.9
2015-Jan-31 03:33N 54°44' E 013°38'1010.0
2015-Jan-31 02:33N 54°36' E 013°48'1010.2
2015-Jan-31 01:33N 54°28' E 013°58'1010.1
2015-Jan-31 00:33N 54°20' E 014°08'10 9.8
2015-Jan-30 23:31N 54°10' E 014°13'1010.1
2015-Jan-30 22:33N 54°00' E 014°16'8 8.3
2015-Jan-30 21:33N 53°52' E 014°17'10 9.5
2015-Jan-30 20:33N 53°44' E 014°26'1110.6
2015-Jan-30 19:33N 53°35' E 014°36'1 0.0
2015-Jan-29 12:14N 53°34' E 014°36'6 9.2
2015-Jan-29 11:33N 53°40' E 014°32'1111.1
2015-Jan-29 10:33N 53°49' E 014°20'6 6.2
2015-Jan-29 09:33N 53°55' E 014°16'6 6.0
2015-Jan-29 08:33N 54°01' E 014°15'10 9.6
2015-Jan-29 07:33N 54°09' E 014°07'1010.1
2015-Jan-29 06:33N 54°18' E 013°59'1010.2
2015-Jan-29 05:33N 54°27' E 013°51'1010.4
2015-Jan-29 04:33N 54°36' E 013°42'1010.1
2015-Jan-29 03:33N 54°44' E 013°33'1110.8
2015-Jan-29 02:34N 54°45' E 013°14'1110.6
2015-Jan-29 01:33N 54°46' E 012°56'10 9.9
2015-Jan-29 00:33N 54°43' E 012°39'1110.8
2015-Jan-28 23:33N 54°37' E 012°24'10 9.9
2015-Jan-28 22:33N 54°28' E 012°15'10 9.8
2015-Jan-28 21:33N 54°25' E 011°60'1010.3
2015-Jan-28 20:33N 54°26' E 011°42'1010.1
2015-Jan-28 19:33N 54°31' E 011°27'10 9.6
2015-Jan-28 18:33N 54°35' E 011°12'10 9.4
2015-Jan-28 17:31N 54°35' E 010°55'10 9.9
2015-Jan-28 16:33N 54°34' E 010°38'1010.1
2015-Jan-28 15:33N 54°30' E 010°22'6 5.9
2015-Jan-28 14:33N 54°27' E 010°15'6 5.8
2015-Jan-28 13:33N 54°22' E 010°09'1 0.6
2015-Jan-28 12:33N 54°22' E 010°08'3 3.2
2015-Jan-28 11:34N 54°22' E 010°02'7 7.1
2015-Jan-28 10:33N 54°22' E 009°50'8 8.0
2015-Jan-28 09:33N 54°17' E 009°39'8 8.2
2015-Jan-28 08:33N 54°11' E 009°29'8 8.0
2015-Jan-28 07:32N 54°05' E 009°19'9 8.6
2015-Jan-28 06:33N 53°57' E 009°15'5 5.2
2015-Jan-28 05:33N 53°54' E 009°09'1 1.0
2015-Jan-28 04:34N 53°53' E 009°07'5 5.2
2015-Jan-28 03:33N 53°51' E 008°59'1211.5
2015-Jan-28 02:33N 53°55' E 008°41'1312.5
2015-Jan-28 01:33N 53°59' E 008°21'1212.3
2015-Jan-28 00:33N 53°58' E 007°60'1211.1
2015-Jan-27 23:27N 53°55' E 007°39'1010.2
2015-Jan-27 22:28N 53°53' E 007°23'48 8.9
2015-Jan-27 17:06N 53°41' E 006°04'6 9.1
2015-Jan-27 16:26N 53°39' E 005°55'9 9.5
2015-Jan-27 15:32N 53°36' E 005°41'10 9.9
2015-Jan-27 14:33N 53°33' E 005°26'1010.0
2015-Jan-27 13:33N 53°30' E 005°10'1010.5
2015-Jan-27 12:34N 53°26' E 004°54'10 9.6
2015-Jan-27 11:34N 53°20' E 004°41'115 7.6
2015-Jan-26 20:28N 51°35' E 003°24'1111.8
2015-Jan-26 19:33N 51°26' E 003°34'5 5.1
2015-Jan-26 18:32N 51°27' E 003°42'0 0.0
2015-Jan-26 17:29N 51°27' E 003°42'0 0.0
2015-Jan-26 16:17N 51°27' E 003°42'0 0.0
2015-Jan-26 15:23N 51°27' E 003°42'0 0.0
2015-Jan-26 14:26N 51°27' E 003°42'0 0.0
2015-Jan-26 13:23N 51°27' E 003°42'0 0.0
2015-Jan-26 12:26N 51°27' E 003°42'0 0.0
2015-Jan-26 11:32N 51°27' E 003°42'0 0.0
2015-Jan-26 10:29N 51°27' E 003°42'0 0.0
2015-Jan-26 09:29N 51°27' E 003°42'0 0.0
2015-Jan-26 08:32N 51°27' E 003°42'1 1.3
2015-Jan-26 07:33N 51°27' E 003°40'8 8.0
2015-Jan-26 06:33N 51°30' E 003°28'1010.0
2015-Jan-26 05:33N 51°38' E 003°20'8 7.6
2015-Jan-26 04:33N 51°45' E 003°14'3 1.2
2015-Jan-26 02:23N 51°47' E 003°15'19 4.9
2015-Jan-25 22:25N 52°06' E 003°22'3 3.7
2015-Jan-25 21:31N 52°10' E 003°22'3 3.0
2015-Jan-25 20:32N 52°13' E 003°23'2 2.5
2015-Jan-25 19:33N 52°15' E 003°24'11 2.5
2015-Jan-25 15:16N 52°25' E 003°27'15 5.2
2015-Jan-25 12:23N 52°40' E 003°34'17 6.1
2015-Jan-25 09:33N 52°53' E 003°52'5 4.7
2015-Jan-25 08:33N 52°57' E 003°57'  
2015-Jan-23 03:18N 58°46' E 005°23'6 8.6
2015-Jan-23 02:33N 58°51' E 005°30'9 9.3
2015-Jan-23 01:33N 59°00' E 005°33'9 9.0
2015-Jan-23 00:31N 59°10' E 005°35'1010.5
2015-Jan-22 23:33N 59°18' E 005°47'1110.6
2015-Jan-22 22:32N 59°24' E 006°04'17 0.8
2015-Jan-22 00:13N 59°39' E 006°22'9 1.4
2015-Jan-21 17:16N 59°30' E 006°14'7 8.5
2015-Jan-21 16:24N 59°24' E 006°05'8 9.2
2015-Jan-21 15:34N 59°19' E 005°55'9 9.2
2015-Jan-21 14:33N 59°13' E 005°40'9 8.9
2015-Jan-21 13:33N 59°05' E 005°33'6 6.4
2015-Jan-21 12:33N 58°60' E 005°40'  

Dump ship's entire track history